sensor_id;sensor_type;location;lat;lon;timestamp;P1;durP1;ratioP1;P2;durP2;ratioP2
12356;SDS011;6243;51.244;6.774;2023-07-20T00:01:15;5.57;;;3.87;;
12356;SDS011;6243;51.244;6.774;2023-07-20T00:03:41;4.07;;;3.67;;
12356;SDS011;6243;51.244;6.774;2023-07-20T00:06:08;4.13;;;3.43;;
12356;SDS011;6243;51.244;6.774;2023-07-20T00:08:33;3.90;;;3.60;;
12356;SDS011;6243;51.244;6.774;2023-07-20T00:10:59;4.13;;;3.40;;
12356;SDS011;6243;51.244;6.774;2023-07-20T00:13:24;3.80;;;3.40;;
12356;SDS011;6243;51.244;6.774;2023-07-20T00:15:50;6.27;;;3.90;;
12356;SDS011;6243;51.244;6.774;2023-07-20T00:18:16;4.53;;;3.17;;
12356;SDS011;6243;51.244;6.774;2023-07-20T00:20:42;5.70;;;3.50;;
12356;SDS011;6243;51.244;6.774;2023-07-20T00:23:09;5.73;;;3.70;;
12356;SDS011;6243;51.244;6.774;2023-07-20T00:25:34;3.70;;;3.20;;
12356;SDS011;6243;51.244;6.774;2023-07-20T00:28:00;6.43;;;3.80;;
12356;SDS011;6243;51.244;6.774;2023-07-20T00:30:25;4.97;;;3.70;;
12356;SDS011;6243;51.244;6.774;2023-07-20T00:32:51;5.47;;;3.83;;
12356;SDS011;6243;51.244;6.774;2023-07-20T00:35:16;3.50;;;3.20;;
12356;SDS011;6243;51.244;6.774;2023-07-20T00:37:42;4.43;;;3.33;;
12356;SDS011;6243;51.244;6.774;2023-07-20T00:40:09;5.13;;;3.30;;
12356;SDS011;6243;51.244;6.774;2023-07-20T00:42:35;4.97;;;3.63;;
12356;SDS011;6243;51.244;6.774;2023-07-20T00:45:01;4.53;;;3.70;;
12356;SDS011;6243;51.244;6.774;2023-07-20T00:47:26;5.37;;;3.27;;
12356;SDS011;6243;51.244;6.774;2023-07-20T00:49:52;4.47;;;3.27;;
12356;SDS011;6243;51.244;6.774;2023-07-20T00:52:19;7.00;;;3.40;;
12356;SDS011;6243;51.244;6.774;2023-07-20T00:54:46;4.83;;;3.50;;
12356;SDS011;6243;51.244;6.774;2023-07-20T00:57:14;5.93;;;3.77;;
12356;SDS011;6243;51.244;6.774;2023-07-20T00:59:39;6.63;;;4.07;;
12356;SDS011;6243;51.244;6.774;2023-07-20T01:02:05;5.67;;;3.60;;
12356;SDS011;6243;51.244;6.774;2023-07-20T01:04:31;4.07;;;3.50;;
12356;SDS011;6243;51.244;6.774;2023-07-20T01:06:57;3.67;;;3.27;;
12356;SDS011;6243;51.244;6.774;2023-07-20T01:09:39;4.33;;;3.40;;
12356;SDS011;6243;51.244;6.774;2023-07-20T01:12:12;5.70;;;3.70;;
12356;SDS011;6243;51.244;6.774;2023-07-20T01:14:43;4.90;;;3.93;;
12356;SDS011;6243;51.244;6.774;2023-07-20T01:17:10;4.13;;;3.50;;
12356;SDS011;6243;51.244;6.774;2023-07-20T01:19:35;3.80;;;3.50;;
12356;SDS011;6243;51.244;6.774;2023-07-20T01:22:02;5.53;;;3.87;;
12356;SDS011;6243;51.244;6.774;2023-07-20T01:27:41;4.43;;;4.03;;
12356;SDS011;6243;51.244;6.774;2023-07-20T01:33:22;7.00;;;3.47;;
12356;SDS011;6243;51.244;6.774;2023-07-20T01:35:52;4.60;;;3.60;;
12356;SDS011;6243;51.244;6.774;2023-07-20T01:38:19;3.70;;;3.40;;
12356;SDS011;6243;51.244;6.774;2023-07-20T01:40:46;8.03;;;3.40;;
12356;SDS011;6243;51.244;6.774;2023-07-20T01:43:12;3.67;;;3.37;;
12356;SDS011;6243;51.244;6.774;2023-07-20T01:45:38;6.03;;;4.00;;
12356;SDS011;6243;51.244;6.774;2023-07-20T01:48:04;5.73;;;3.70;;
12356;SDS011;6243;51.244;6.774;2023-07-20T01:50:31;4.40;;;3.80;;
12356;SDS011;6243;51.244;6.774;2023-07-20T01:52:56;4.70;;;3.77;;
12356;SDS011;6243;51.244;6.774;2023-07-20T01:55:22;5.00;;;3.93;;
12356;SDS011;6243;51.244;6.774;2023-07-20T01:57:47;5.73;;;3.70;;
12356;SDS011;6243;51.244;6.774;2023-07-20T02:00:13;5.20;;;3.87;;
12356;SDS011;6243;51.244;6.774;2023-07-20T02:02:39;5.17;;;4.13;;
12356;SDS011;6243;51.244;6.774;2023-07-20T02:05:04;6.83;;;3.50;;
12356;SDS011;6243;51.244;6.774;2023-07-20T02:07:32;7.67;;;4.30;;
12356;SDS011;6243;51.244;6.774;2023-07-20T02:09:58;4.73;;;4.10;;
12356;SDS011;6243;51.244;6.774;2023-07-20T02:12:23;4.67;;;3.70;;
12356;SDS011;6243;51.244;6.774;2023-07-20T02:14:49;3.60;;;3.30;;
12356;SDS011;6243;51.244;6.774;2023-07-20T02:17:14;4.37;;;3.60;;
12356;SDS011;6243;51.244;6.774;2023-07-20T02:19:40;5.13;;;4.10;;
12356;SDS011;6243;51.244;6.774;2023-07-20T02:22:05;5.13;;;3.63;;
12356;SDS011;6243;51.244;6.774;2023-07-20T02:24:32;4.57;;;3.53;;
12356;SDS011;6243;51.244;6.774;2023-07-20T02:26:58;5.33;;;3.77;;
12356;SDS011;6243;51.244;6.774;2023-07-20T02:29:23;4.20;;;3.80;;
12356;SDS011;6243;51.244;6.774;2023-07-20T02:31:49;4.03;;;3.13;;
12356;SDS011;6243;51.244;6.774;2023-07-20T02:34:14;6.90;;;4.37;;
12356;SDS011;6243;51.244;6.774;2023-07-20T02:36:40;4.97;;;3.80;;
12356;SDS011;6243;51.244;6.774;2023-07-20T02:39:05;4.20;;;3.20;;
12356;SDS011;6243;51.244;6.774;2023-07-20T02:41:32;4.17;;;3.63;;
12356;SDS011;6243;51.244;6.774;2023-07-20T02:43:58;5.23;;;3.53;;
12356;SDS011;6243;51.244;6.774;2023-07-20T02:46:24;4.83;;;3.77;;
12356;SDS011;6243;51.244;6.774;2023-07-20T02:48:49;5.20;;;3.93;;
12356;SDS011;6243;51.244;6.774;2023-07-20T02:51:15;4.93;;;3.67;;
12356;SDS011;6243;51.244;6.774;2023-07-20T02:53:40;4.40;;;3.40;;
12356;SDS011;6243;51.244;6.774;2023-07-20T02:56:06;4.07;;;3.73;;
12356;SDS011;6243;51.244;6.774;2023-07-20T02:58:33;4.00;;;3.50;;
12356;SDS011;6243;51.244;6.774;2023-07-20T03:00:59;4.27;;;3.77;;
12356;SDS011;6243;51.244;6.774;2023-07-20T03:03:25;5.37;;;3.87;;
12356;SDS011;6243;51.244;6.774;2023-07-20T03:05:50;3.97;;;3.37;;
12356;SDS011;6243;51.244;6.774;2023-07-20T03:08:16;5.90;;;4.03;;
12356;SDS011;6243;51.244;6.774;2023-07-20T03:10:41;4.90;;;3.93;;
12356;SDS011;6243;51.244;6.774;2023-07-20T03:13:07;5.70;;;3.53;;
12356;SDS011;6243;51.244;6.774;2023-07-20T03:15:33;4.43;;;3.90;;
12356;SDS011;6243;51.244;6.774;2023-07-20T03:17:59;6.30;;;4.00;;
12356;SDS011;6243;51.244;6.774;2023-07-20T03:20:24;4.60;;;3.70;;
12356;SDS011;6243;51.244;6.774;2023-07-20T03:22:50;4.33;;;3.37;;
12356;SDS011;6243;51.244;6.774;2023-07-20T03:25:15;4.93;;;3.73;;
12356;SDS011;6243;51.244;6.774;2023-07-20T03:27:41;5.40;;;3.83;;
12356;SDS011;6243;51.244;6.774;2023-07-20T03:30:07;5.17;;;4.20;;
12356;SDS011;6243;51.244;6.774;2023-07-20T03:32:34;4.90;;;4.00;;
12356;SDS011;6243;51.244;6.774;2023-07-20T03:35:00;4.57;;;4.13;;
12356;SDS011;6243;51.244;6.774;2023-07-20T03:37:25;5.17;;;4.07;;
12356;SDS011;6243;51.244;6.774;2023-07-20T03:39:51;5.20;;;3.97;;
12356;SDS011;6243;51.244;6.774;2023-07-20T03:42:16;5.43;;;4.13;;
12356;SDS011;6243;51.244;6.774;2023-07-20T03:44:42;6.17;;;4.07;;
12356;SDS011;6243;51.244;6.774;2023-07-20T03:47:07;4.67;;;4.10;;
12356;SDS011;6243;51.244;6.774;2023-07-20T03:49:34;5.63;;;4.20;;
12356;SDS011;6243;51.244;6.774;2023-07-20T03:52:00;4.67;;;3.83;;
12356;SDS011;6243;51.244;6.774;2023-07-20T03:54:25;5.40;;;4.80;;
12356;SDS011;6243;51.244;6.774;2023-07-20T03:56:51;6.20;;;4.47;;
12356;SDS011;6243;51.244;6.774;2023-07-20T03:59:16;5.93;;;4.20;;
12356;SDS011;6243;51.244;6.774;2023-07-20T04:01:42;7.60;;;4.37;;
12356;SDS011;6243;51.244;6.774;2023-07-20T04:04:07;5.70;;;4.27;;
12356;SDS011;6243;51.244;6.774;2023-07-20T04:06:34;8.33;;;4.70;;
12356;SDS011;6243;51.244;6.774;2023-07-20T04:09:00;4.53;;;4.00;;
12356;SDS011;6243;51.244;6.774;2023-07-20T04:11:25;6.70;;;4.43;;
12356;SDS011;6243;51.244;6.774;2023-07-20T04:13:51;8.53;;;5.17;;
12356;SDS011;6243;51.244;6.774;2023-07-20T04:16:16;5.93;;;4.97;;
12356;SDS011;6243;51.244;6.774;2023-07-20T04:18:42;6.53;;;4.67;;
12356;SDS011;6243;51.244;6.774;2023-07-20T04:21:07;6.47;;;4.30;;
12356;SDS011;6243;51.244;6.774;2023-07-20T04:23:34;7.57;;;5.10;;
12356;SDS011;6243;51.244;6.774;2023-07-20T04:26:00;5.17;;;4.20;;
12356;SDS011;6243;51.244;6.774;2023-07-20T04:28:25;7.33;;;5.00;;
12356;SDS011;6243;51.244;6.774;2023-07-20T04:30:51;5.50;;;4.70;;
12356;SDS011;6243;51.244;6.774;2023-07-20T04:33:17;6.07;;;4.40;;
12356;SDS011;6243;51.244;6.774;2023-07-20T04:35:49;6.80;;;5.73;;
12356;SDS011;6243;51.244;6.774;2023-07-20T04:38:16;8.70;;;5.97;;
12356;SDS011;6243;51.244;6.774;2023-07-20T04:40:43;6.60;;;5.10;;
12356;SDS011;6243;51.244;6.774;2023-07-20T04:43:09;6.37;;;5.67;;
12356;SDS011;6243;51.244;6.774;2023-07-20T04:45:35;6.87;;;6.17;;
12356;SDS011;6243;51.244;6.774;2023-07-20T04:48:00;8.37;;;6.00;;
12356;SDS011;6243;51.244;6.774;2023-07-20T04:50:26;6.17;;;5.37;;
12356;SDS011;6243;51.244;6.774;2023-07-20T04:52:51;8.57;;;6.27;;
12356;SDS011;6243;51.244;6.774;2023-07-20T04:55:17;7.70;;;6.20;;
12356;SDS011;6243;51.244;6.774;2023-07-20T04:57:44;9.97;;;6.07;;
12356;SDS011;6243;51.244;6.774;2023-07-20T05:00:10;9.47;;;7.50;;
12356;SDS011;6243;51.244;6.774;2023-07-20T05:02:36;9.97;;;7.37;;
12356;SDS011;6243;51.244;6.774;2023-07-20T05:05:02;10.70;;;7.20;;
12356;SDS011;6243;51.244;6.774;2023-07-20T05:07:28;9.30;;;7.20;;
12356;SDS011;6243;51.244;6.774;2023-07-20T05:09:54;9.30;;;8.10;;
12356;SDS011;6243;51.244;6.774;2023-07-20T05:12:19;10.10;;;7.63;;
12356;SDS011;6243;51.244;6.774;2023-07-20T05:14:46;9.07;;;8.13;;
12356;SDS011;6243;51.244;6.774;2023-07-20T05:17:11;10.77;;;8.63;;
12356;SDS011;6243;51.244;6.774;2023-07-20T05:19:37;11.73;;;10.00;;
12356;SDS011;6243;51.244;6.774;2023-07-20T05:22:03;11.43;;;9.90;;
12356;SDS011;6243;51.244;6.774;2023-07-20T05:24:28;13.10;;;10.07;;
12356;SDS011;6243;51.244;6.774;2023-07-20T05:26:54;10.97;;;9.47;;
12356;SDS011;6243;51.244;6.774;2023-07-20T05:29:19;11.10;;;9.80;;
12356;SDS011;6243;51.244;6.774;2023-07-20T05:31:46;11.10;;;9.50;;
12356;SDS011;6243;51.244;6.774;2023-07-20T05:34:12;12.03;;;10.43;;
12356;SDS011;6243;51.244;6.774;2023-07-20T05:36:37;11.03;;;9.87;;
12356;SDS011;6243;51.244;6.774;2023-07-20T05:39:03;11.20;;;9.90;;
12356;SDS011;6243;51.244;6.774;2023-07-20T05:41:28;12.67;;;11.00;;
12356;SDS011;6243;51.244;6.774;2023-07-20T05:43:54;11.57;;;10.37;;
12356;SDS011;6243;51.244;6.774;2023-07-20T05:46:19;10.87;;;9.73;;
12356;SDS011;6243;51.244;6.774;2023-07-20T05:48:46;11.67;;;10.33;;
12356;SDS011;6243;51.244;6.774;2023-07-20T05:51:12;12.47;;;10.23;;
12356;SDS011;6243;51.244;6.774;2023-07-20T05:53:37;10.13;;;9.13;;
12356;SDS011;6243;51.244;6.774;2023-07-20T05:56:03;10.67;;;9.60;;
12356;SDS011;6243;51.244;6.774;2023-07-20T05:58:28;11.37;;;9.53;;
12356;SDS011;6243;51.244;6.774;2023-07-20T06:00:54;10.33;;;9.33;;
12356;SDS011;6243;51.244;6.774;2023-07-20T06:03:20;9.47;;;8.50;;
12356;SDS011;6243;51.244;6.774;2023-07-20T06:05:46;10.10;;;8.27;;
12356;SDS011;6243;51.244;6.774;2023-07-20T06:08:12;10.27;;;8.97;;
12356;SDS011;6243;51.244;6.774;2023-07-20T06:10:37;10.37;;;7.93;;
12356;SDS011;6243;51.244;6.774;2023-07-20T06:13:03;8.63;;;7.33;;
12356;SDS011;6243;51.244;6.774;2023-07-20T06:15:30;7.37;;;6.77;;
12356;SDS011;6243;51.244;6.774;2023-07-20T06:17:57;6.73;;;6.07;;
12356;SDS011;6243;51.244;6.774;2023-07-20T06:20:22;5.97;;;5.20;;
12356;SDS011;6243;51.244;6.774;2023-07-20T06:22:49;7.83;;;6.10;;
12356;SDS011;6243;51.244;6.774;2023-07-20T06:25:15;6.40;;;5.47;;
12356;SDS011;6243;51.244;6.774;2023-07-20T06:27:41;5.53;;;5.03;;
12356;SDS011;6243;51.244;6.774;2023-07-20T06:30:07;4.33;;;3.93;;
12356;SDS011;6243;51.244;6.774;2023-07-20T06:32:33;5.80;;;4.53;;
12356;SDS011;6243;51.244;6.774;2023-07-20T06:34:59;3.87;;;3.57;;
12356;SDS011;6243;51.244;6.774;2023-07-20T06:37:24;3.60;;;3.30;;
12356;SDS011;6243;51.244;6.774;2023-07-20T06:39:51;4.07;;;3.53;;
12356;SDS011;6243;51.244;6.774;2023-07-20T06:42:17;4.20;;;3.10;;
12356;SDS011;6243;51.244;6.774;2023-07-20T06:44:42;3.53;;;3.23;;
12356;SDS011;6243;51.244;6.774;2023-07-20T06:47:08;4.67;;;3.67;;
12356;SDS011;6243;51.244;6.774;2023-07-20T06:49:33;4.63;;;3.80;;
12356;SDS011;6243;51.244;6.774;2023-07-20T06:51:59;3.57;;;3.20;;
12356;SDS011;6243;51.244;6.774;2023-07-20T06:54:24;2.70;;;2.50;;
12356;SDS011;6243;51.244;6.774;2023-07-20T06:56:51;3.73;;;2.93;;
12356;SDS011;6243;51.244;6.774;2023-07-20T06:59:18;4.23;;;3.10;;
12356;SDS011;6243;51.244;6.774;2023-07-20T07:01:43;3.40;;;3.07;;
12356;SDS011;6243;51.244;6.774;2023-07-20T07:04:09;4.23;;;3.10;;
12356;SDS011;6243;51.244;6.774;2023-07-20T07:06:34;3.90;;;2.77;;
12356;SDS011;6243;51.244;6.774;2023-07-20T07:09:00;3.67;;;2.90;;
12356;SDS011;6243;51.244;6.774;2023-07-20T07:11:25;3.57;;;2.80;;
12356;SDS011;6243;51.244;6.774;2023-07-20T07:13:52;3.70;;;2.57;;
12356;SDS011;6243;51.244;6.774;2023-07-20T07:16:18;5.80;;;2.60;;
12356;SDS011;6243;51.244;6.774;2023-07-20T07:18:43;2.77;;;2.30;;
12356;SDS011;6243;51.244;6.774;2023-07-20T07:21:09;2.37;;;2.00;;
12356;SDS011;6243;51.244;6.774;2023-07-20T07:23:34;2.17;;;2.00;;
12356;SDS011;6243;51.244;6.774;2023-07-20T07:26:00;1.93;;;1.80;;
12356;SDS011;6243;51.244;6.774;2023-07-20T07:28:25;2.20;;;2.00;;
12356;SDS011;6243;51.244;6.774;2023-07-20T07:30:52;4.00;;;2.03;;
12356;SDS011;6243;51.244;6.774;2023-07-20T07:33:20;1.60;;;1.50;;
12356;SDS011;6243;51.244;6.774;2023-07-20T07:35:45;1.70;;;1.60;;
12356;SDS011;6243;51.244;6.774;2023-07-20T07:38:11;1.83;;;1.30;;
12356;SDS011;6243;51.244;6.774;2023-07-20T07:40:37;1.90;;;1.43;;
12356;SDS011;6243;51.244;6.774;2023-07-20T07:43:02;2.13;;;1.57;;
12356;SDS011;6243;51.244;6.774;2023-07-20T07:45:28;1.73;;;1.30;;
12356;SDS011;6243;51.244;6.774;2023-07-20T07:47:55;2.03;;;1.83;;
12356;SDS011;6243;51.244;6.774;2023-07-20T07:50:20;3.53;;;1.43;;
12356;SDS011;6243;51.244;6.774;2023-07-20T07:52:46;2.27;;;1.40;;
12356;SDS011;6243;51.244;6.774;2023-07-20T07:55:12;1.83;;;1.23;;
12356;SDS011;6243;51.244;6.774;2023-07-20T07:57:37;1.20;;;1.10;;
12356;SDS011;6243;51.244;6.774;2023-07-20T08:00:03;2.50;;;1.50;;
12356;SDS011;6243;51.244;6.774;2023-07-20T08:02:30;2.30;;;1.20;;
12356;SDS011;6243;51.244;6.774;2023-07-20T08:04:57;5.03;;;1.23;;
12356;SDS011;6243;51.244;6.774;2023-07-20T08:07:22;1.47;;;0.60;;
12356;SDS011;6243;51.244;6.774;2023-07-20T08:09:48;0.70;;;0.70;;
12356;SDS011;6243;51.244;6.774;2023-07-20T08:12:13;1.47;;;1.20;;
12356;SDS011;6243;51.244;6.774;2023-07-20T08:14:39;1.27;;;1.03;;
12356;SDS011;6243;51.244;6.774;2023-07-20T08:17:04;1.10;;;0.97;;
12356;SDS011;6243;51.244;6.774;2023-07-20T08:19:30;3.13;;;0.90;;
12356;SDS011;6243;51.244;6.774;2023-07-20T08:21:57;1.90;;;1.10;;
12356;SDS011;6243;51.244;6.774;2023-07-20T08:24:22;1.50;;;1.40;;
12356;SDS011;6243;51.244;6.774;2023-07-20T08:26:48;1.10;;;1.00;;
12356;SDS011;6243;51.244;6.774;2023-07-20T08:29:13;1.07;;;0.83;;
12356;SDS011;6243;51.244;6.774;2023-07-20T08:31:39;0.70;;;0.70;;
12356;SDS011;6243;51.244;6.774;2023-07-20T08:34:04;6.00;;;0.93;;
12356;SDS011;6243;51.244;6.774;2023-07-20T08:36:30;0.93;;;0.90;;
12356;SDS011;6243;51.244;6.774;2023-07-20T08:38:57;0.67;;;0.63;;
12356;SDS011;6243;51.244;6.774;2023-07-20T08:41:22;1.00;;;0.90;;
12356;SDS011;6243;51.244;6.774;2023-07-20T08:43:48;1.50;;;1.37;;
12356;SDS011;6243;51.244;6.774;2023-07-20T08:46:14;1.00;;;0.90;;
12356;SDS011;6243;51.244;6.774;2023-07-20T08:48:41;1.70;;;0.90;;
12356;SDS011;6243;51.244;6.774;2023-07-20T08:51:08;3.90;;;1.13;;
12356;SDS011;6243;51.244;6.774;2023-07-20T08:53:35;1.53;;;1.00;;
12356;SDS011;6243;51.244;6.774;2023-07-20T08:56:02;0.77;;;0.77;;
12356;SDS011;6243;51.244;6.774;2023-07-20T08:58:30;0.67;;;0.67;;
12356;SDS011;6243;51.244;6.774;2023-07-20T09:00:56;0.93;;;0.80;;
12356;SDS011;6243;51.244;6.774;2023-07-20T09:03:24;0.70;;;0.70;;
12356;SDS011;6243;51.244;6.774;2023-07-20T09:05:49;1.73;;;0.77;;
12356;SDS011;6243;51.244;6.774;2023-07-20T09:08:15;0.60;;;0.30;;
12356;SDS011;6243;51.244;6.774;2023-07-20T09:10:41;0.53;;;0.53;;
12356;SDS011;6243;51.244;6.774;2023-07-20T09:13:08;0.70;;;0.70;;
12356;SDS011;6243;51.244;6.774;2023-07-20T09:15:33;0.80;;;0.80;;
12356;SDS011;6243;51.244;6.774;2023-07-20T09:18:01;1.23;;;0.60;;
12356;SDS011;6243;51.244;6.774;2023-07-20T09:20:27;0.50;;;0.50;;
12356;SDS011;6243;51.244;6.774;2023-07-20T09:22:56;0.80;;;0.60;;
12356;SDS011;6243;51.244;6.774;2023-07-20T09:25:22;0.70;;;0.70;;
12356;SDS011;6243;51.244;6.774;2023-07-20T09:27:48;0.60;;;0.60;;
12356;SDS011;6243;51.244;6.774;2023-07-20T09:30:16;0.70;;;0.70;;
12356;SDS011;6243;51.244;6.774;2023-07-20T09:32:42;1.00;;;0.70;;
12356;SDS011;6243;51.244;6.774;2023-07-20T09:35:18;1.33;;;0.63;;
12356;SDS011;6243;51.244;6.774;2023-07-20T09:37:46;1.53;;;0.70;;
12356;SDS011;6243;51.244;6.774;2023-07-20T09:40:14;0.50;;;0.50;;
12356;SDS011;6243;51.244;6.774;2023-07-20T09:42:40;0.87;;;0.60;;
12356;SDS011;6243;51.244;6.774;2023-07-20T09:45:07;0.57;;;0.57;;
12356;SDS011;6243;51.244;6.774;2023-07-20T09:47:35;0.50;;;0.50;;
12356;SDS011;6243;51.244;6.774;2023-07-20T09:50:01;1.17;;;0.50;;
12356;SDS011;6243;51.244;6.774;2023-07-20T09:52:26;0.67;;;0.67;;
12356;SDS011;6243;51.244;6.774;2023-07-20T09:54:53;0.83;;;0.30;;
12356;SDS011;6243;51.244;6.774;2023-07-20T09:57:20;0.87;;;0.70;;
12356;SDS011;6243;51.244;6.774;2023-07-20T09:59:46;1.00;;;0.90;;
12356;SDS011;6243;51.244;6.774;2023-07-20T10:02:15;1.00;;;0.90;;
12356;SDS011;6243;51.244;6.774;2023-07-20T10:04:47;0.67;;;0.67;;
12356;SDS011;6243;51.244;6.774;2023-07-20T10:07:16;1.03;;;0.93;;
12356;SDS011;6243;51.244;6.774;2023-07-20T10:09:44;0.73;;;0.73;;
12356;SDS011;6243;51.244;6.774;2023-07-20T10:12:10;0.67;;;0.50;;
12356;SDS011;6243;51.244;6.774;2023-07-20T10:14:37;0.60;;;0.50;;
12356;SDS011;6243;51.244;6.774;2023-07-20T10:17:07;0.70;;;0.60;;
12356;SDS011;6243;51.244;6.774;2023-07-20T10:19:39;0.57;;;0.57;;
12356;SDS011;6243;51.244;6.774;2023-07-20T10:22:10;0.70;;;0.70;;
12356;SDS011;6243;51.244;6.774;2023-07-20T10:24:39;0.70;;;0.50;;
12356;SDS011;6243;51.244;6.774;2023-07-20T10:27:06;1.33;;;0.70;;
12356;SDS011;6243;51.244;6.774;2023-07-20T10:29:32;1.50;;;0.50;;
12356;SDS011;6243;51.244;6.774;2023-07-20T10:31:59;0.90;;;0.70;;
12356;SDS011;6243;51.244;6.774;2023-07-20T10:34:25;0.60;;;0.60;;
12356;SDS011;6243;51.244;6.774;2023-07-20T10:36:51;0.60;;;0.60;;
12356;SDS011;6243;51.244;6.774;2023-07-20T10:39:24;1.37;;;1.10;;
12356;SDS011;6243;51.244;6.774;2023-07-20T10:41:50;0.77;;;0.77;;
12356;SDS011;6243;51.244;6.774;2023-07-20T10:44:25;1.63;;;0.70;;
12356;SDS011;6243;51.244;6.774;2023-07-20T10:46:51;0.60;;;0.60;;
12356;SDS011;6243;51.244;6.774;2023-07-20T10:49:24;0.80;;;0.80;;
12356;SDS011;6243;51.244;6.774;2023-07-20T10:51:55;0.87;;;0.70;;
12356;SDS011;6243;51.244;6.774;2023-07-20T10:57:22;0.70;;;0.70;;
12356;SDS011;6243;51.244;6.774;2023-07-20T10:59:49;0.60;;;0.60;;
12356;SDS011;6243;51.244;6.774;2023-07-20T11:02:17;0.70;;;0.70;;
12356;SDS011;6243;51.244;6.774;2023-07-20T11:04:43;0.90;;;0.60;;
12356;SDS011;6243;51.244;6.774;2023-07-20T11:07:11;1.07;;;0.50;;
12356;SDS011;6243;51.244;6.774;2023-07-20T11:09:41;1.67;;;0.73;;
12356;SDS011;6243;51.244;6.774;2023-07-20T11:12:11;1.10;;;0.60;;
12356;SDS011;6243;51.244;6.774;2023-07-20T11:14:40;0.80;;;0.70;;
12356;SDS011;6243;51.244;6.774;2023-07-20T11:17:10;0.60;;;0.60;;
12356;SDS011;6243;51.244;6.774;2023-07-20T11:19:36;1.00;;;0.80;;
12356;SDS011;6243;51.244;6.774;2023-07-20T11:22:04;0.73;;;0.70;;
12356;SDS011;6243;51.244;6.774;2023-07-20T11:24:30;0.60;;;0.60;;
12356;SDS011;6243;51.244;6.774;2023-07-20T11:26:56;0.73;;;0.73;;
12356;SDS011;6243;51.244;6.774;2023-07-20T11:29:23;0.77;;;0.77;;
12356;SDS011;6243;51.244;6.774;2023-07-20T11:31:49;0.57;;;0.57;;
12356;SDS011;6243;51.244;6.774;2023-07-20T11:34:15;0.63;;;0.63;;
12356;SDS011;6243;51.244;6.774;2023-07-20T11:36:42;0.90;;;0.90;;
12356;SDS011;6243;51.244;6.774;2023-07-20T11:39:09;0.77;;;0.67;;
12356;SDS011;6243;51.244;6.774;2023-07-20T11:41:35;1.33;;;1.00;;
12356;SDS011;6243;51.244;6.774;2023-07-20T11:44:01;0.90;;;0.50;;
12356;SDS011;6243;51.244;6.774;2023-07-20T11:46:28;0.63;;;0.63;;
12356;SDS011;6243;51.244;6.774;2023-07-20T11:48:57;2.53;;;0.80;;
12356;SDS011;6243;51.244;6.774;2023-07-20T11:51:23;1.20;;;0.80;;
12356;SDS011;6243;51.244;6.774;2023-07-20T11:53:49;0.70;;;0.70;;
12356;SDS011;6243;51.244;6.774;2023-07-20T11:56:15;1.40;;;0.70;;
12356;SDS011;6243;51.244;6.774;2023-07-20T11:58:44;1.00;;;0.90;;
12356;SDS011;6243;51.244;6.774;2023-07-20T12:01:10;0.70;;;0.70;;
12356;SDS011;6243;51.244;6.774;2023-07-20T12:03:38;0.67;;;0.63;;
12356;SDS011;6243;51.244;6.774;2023-07-20T12:06:07;1.20;;;0.93;;
12356;SDS011;6243;51.244;6.774;2023-07-20T12:08:33;0.60;;;0.60;;
12356;SDS011;6243;51.244;6.774;2023-07-20T12:10:59;0.70;;;0.70;;
12356;SDS011;6243;51.244;6.774;2023-07-20T12:13:34;0.60;;;0.60;;
12356;SDS011;6243;51.244;6.774;2023-07-20T12:16:06;1.23;;;0.80;;
12356;SDS011;6243;51.244;6.774;2023-07-20T12:18:34;0.70;;;0.70;;
12356;SDS011;6243;51.244;6.774;2023-07-20T12:21:01;0.90;;;0.80;;
12356;SDS011;6243;51.244;6.774;2023-07-20T12:23:34;0.87;;;0.83;;
12356;SDS011;6243;51.244;6.774;2023-07-20T12:26:00;1.10;;;0.70;;
12356;SDS011;6243;51.244;6.774;2023-07-20T12:28:26;2.00;;;0.77;;
12356;SDS011;6243;51.244;6.774;2023-07-20T12:30:51;1.40;;;0.80;;
12356;SDS011;6243;51.244;6.774;2023-07-20T12:33:17;1.13;;;0.70;;
12356;SDS011;6243;51.244;6.774;2023-07-20T12:35:43;0.57;;;0.57;;
12356;SDS011;6243;51.244;6.774;2023-07-20T12:38:10;1.00;;;0.90;;
12356;SDS011;6243;51.244;6.774;2023-07-20T12:40:35;0.80;;;0.80;;
12356;SDS011;6243;51.244;6.774;2023-07-20T12:43:01;0.80;;;0.80;;
12356;SDS011;6243;51.244;6.774;2023-07-20T12:45:26;0.70;;;0.70;;
12356;SDS011;6243;51.244;6.774;2023-07-20T12:47:52;0.80;;;0.80;;
12356;SDS011;6243;51.244;6.774;2023-07-20T12:50:17;0.73;;;0.73;;
12356;SDS011;6243;51.244;6.774;2023-07-20T12:52:43;1.27;;;0.80;;
12356;SDS011;6243;51.244;6.774;2023-07-20T12:55:10;0.80;;;0.60;;
12356;SDS011;6243;51.244;6.774;2023-07-20T12:57:36;0.90;;;0.63;;
12356;SDS011;6243;51.244;6.774;2023-07-20T13:00:03;1.27;;;0.90;;
12356;SDS011;6243;51.244;6.774;2023-07-20T13:02:31;1.57;;;1.00;;
12356;SDS011;6243;51.244;6.774;2023-07-20T13:04:57;0.97;;;0.90;;
12356;SDS011;6243;51.244;6.774;2023-07-20T13:07:29;1.73;;;0.70;;
12356;SDS011;6243;51.244;6.774;2023-07-20T13:09:55;0.93;;;0.80;;
12356;SDS011;6243;51.244;6.774;2023-07-20T13:12:21;1.00;;;0.90;;
12356;SDS011;6243;51.244;6.774;2023-07-20T13:14:47;1.20;;;0.70;;
12356;SDS011;6243;51.244;6.774;2023-07-20T13:17:13;0.80;;;0.80;;
12356;SDS011;6243;51.244;6.774;2023-07-20T13:19:38;0.63;;;0.60;;
12356;SDS011;6243;51.244;6.774;2023-07-20T13:22:04;2.03;;;0.90;;
12356;SDS011;6243;51.244;6.774;2023-07-20T13:24:29;0.83;;;0.80;;
12356;SDS011;6243;51.244;6.774;2023-07-20T13:26:55;0.70;;;0.70;;
12356;SDS011;6243;51.244;6.774;2023-07-20T13:29:22;0.93;;;0.77;;
12356;SDS011;6243;51.244;6.774;2023-07-20T13:31:49;0.80;;;0.80;;
12356;SDS011;6243;51.244;6.774;2023-07-20T13:34:14;0.80;;;0.80;;
12356;SDS011;6243;51.244;6.774;2023-07-20T13:36:40;0.97;;;0.97;;
12356;SDS011;6243;51.244;6.774;2023-07-20T13:39:05;0.60;;;0.60;;
12356;SDS011;6243;51.244;6.774;2023-07-20T13:41:31;1.77;;;0.70;;
12356;SDS011;6243;51.244;6.774;2023-07-20T13:43:56;1.33;;;0.80;;
12356;SDS011;6243;51.244;6.774;2023-07-20T13:46:23;0.80;;;0.80;;
12356;SDS011;6243;51.244;6.774;2023-07-20T13:48:49;0.87;;;0.87;;
12356;SDS011;6243;51.244;6.774;2023-07-20T13:51:14;0.53;;;0.53;;
12356;SDS011;6243;51.244;6.774;2023-07-20T13:53:40;1.70;;;0.87;;
12356;SDS011;6243;51.244;6.774;2023-07-20T13:56:05;0.70;;;0.70;;
12356;SDS011;6243;51.244;6.774;2023-07-20T13:58:32;1.60;;;0.93;;
12356;SDS011;6243;51.244;6.774;2023-07-20T14:00:57;0.60;;;0.60;;
12356;SDS011;6243;51.244;6.774;2023-07-20T14:03:24;0.80;;;0.70;;
12356;SDS011;6243;51.244;6.774;2023-07-20T14:05:50;0.80;;;0.70;;
12356;SDS011;6243;51.244;6.774;2023-07-20T14:08:15;1.87;;;0.60;;
12356;SDS011;6243;51.244;6.774;2023-07-20T14:10:41;0.70;;;0.70;;
12356;SDS011;6243;51.244;6.774;2023-07-20T14:13:06;1.03;;;0.93;;
12356;SDS011;6243;51.244;6.774;2023-07-20T14:15:33;1.37;;;0.80;;
12356;SDS011;6243;51.244;6.774;2023-07-20T14:17:59;2.20;;;0.90;;
12356;SDS011;6243;51.244;6.774;2023-07-20T14:20:26;1.37;;;0.80;;
12356;SDS011;6243;51.244;6.774;2023-07-20T14:22:52;2.10;;;0.70;;
12356;SDS011;6243;51.244;6.774;2023-07-20T14:25:17;2.43;;;0.73;;
12356;SDS011;6243;51.244;6.774;2023-07-20T14:27:43;1.23;;;0.80;;
12356;SDS011;6243;51.244;6.774;2023-07-20T14:30:08;0.70;;;0.70;;
12356;SDS011;6243;51.244;6.774;2023-07-20T14:32:35;0.90;;;0.70;;
12356;SDS011;6243;51.244;6.774;2023-07-20T14:35:00;1.67;;;0.60;;
12356;SDS011;6243;51.244;6.774;2023-07-20T14:37:27;1.23;;;0.77;;
12356;SDS011;6243;51.244;6.774;2023-07-20T14:39:53;1.67;;;0.80;;
12356;SDS011;6243;51.244;6.774;2023-07-20T14:42:18;1.23;;;1.00;;
12356;SDS011;6243;51.244;6.774;2023-07-20T14:44:44;1.07;;;0.93;;
12356;SDS011;6243;51.244;6.774;2023-07-20T14:47:09;1.47;;;1.00;;
12356;SDS011;6243;51.244;6.774;2023-07-20T14:49:35;2.10;;;1.33;;
12356;SDS011;6243;51.244;6.774;2023-07-20T14:52:01;1.00;;;1.00;;
12356;SDS011;6243;51.244;6.774;2023-07-20T14:54:28;0.80;;;0.80;;
12356;SDS011;6243;51.244;6.774;2023-07-20T14:56:54;1.13;;;0.90;;
12356;SDS011;6243;51.244;6.774;2023-07-20T14:59:19;1.60;;;0.90;;
12356;SDS011;6243;51.244;6.774;2023-07-20T15:01:45;1.10;;;0.80;;
12356;SDS011;6243;51.244;6.774;2023-07-20T15:04:11;1.80;;;0.80;;